createdAt,value
2022-10-04T00:02:07.841Z,11.03
2022-10-04T00:04:53.816Z,11.03
2022-10-04T00:07:26.377Z,11.01
2022-10-04T00:10:08.150Z,11.01
2022-10-04T00:12:49.922Z,11.00
2022-10-04T00:15:29.404Z,11.04
2022-10-04T00:18:28.407Z,11.03
2022-10-04T00:21:00.709Z,10.93
2022-10-04T00:23:31.693Z,10.98
2022-10-04T00:26:03.365Z,10.99
2022-10-04T00:28:41.852Z,11.02
2022-10-04T00:31:10.873Z,11.01
2022-10-04T00:33:39.675Z,11.02
2022-10-04T00:36:21.875Z,11.03
2022-10-04T00:39:10.343Z,10.94
2022-10-04T00:41:52.380Z,11.00
2022-10-04T00:44:25.638Z,11.02
2022-10-04T00:46:54.416Z,10.98
2022-10-04T00:49:26.974Z,10.99
2022-10-04T00:52:02.295Z,11.02
2022-10-04T00:54:34.465Z,10.99
2022-10-04T00:57:07.786Z,11.03
2022-10-04T00:59:52.680Z,11.08
2022-10-04T01:02:29.370Z,11.00
2022-10-04T01:05:04.451Z,11.08
2022-10-04T01:07:33.782Z,11.08
2022-10-04T01:10:09.468Z,11.08
2022-10-04T01:12:57.319Z,11.04
2022-10-04T01:15:37.158Z,11.10
2022-10-04T01:18:12.722Z,11.12
2022-10-04T01:20:50.612Z,11.03
2022-10-04T01:23:36.276Z,11.14
2022-10-04T01:26:24.239Z,11.14
2022-10-04T01:28:51.289Z,11.10
2022-10-04T01:31:19.360Z,11.07
2022-10-04T01:33:46.689Z,11.10
2022-10-04T01:36:13.728Z,11.12
2022-10-04T01:38:40.783Z,11.18
2022-10-04T01:41:09.104Z,11.18
2022-10-04T01:43:37.908Z,11.20
2022-10-04T01:46:14.171Z,11.18
2022-10-04T01:48:44.275Z,11.13
2022-10-04T01:51:22.262Z,11.15
2022-10-04T01:53:55.531Z,11.20
2022-10-04T01:56:27.888Z,11.16
2022-10-04T01:58:59.368Z,11.09
2022-10-04T02:01:28.993Z,11.14
2022-10-04T02:03:59.826Z,11.12
2022-10-04T02:06:33.608Z,11.03
2022-10-04T02:09:16.029Z,11.03
2022-10-04T02:11:44.663Z,11.06
2022-10-04T02:14:35.828Z,11.02
2022-10-04T02:17:05.513Z,11.08
2022-10-04T02:19:45.656Z,11.06
2022-10-04T02:22:14.630Z,11.10
2022-10-04T02:24:44.510Z,11.08
2022-10-04T02:27:11.656Z,11.12
2022-10-04T02:29:42.978Z,11.04
2022-10-04T02:32:32.381Z,11.05
2022-10-04T02:34:59.362Z,11.09
2022-10-04T02:37:27.798Z,11.04
2022-10-04T02:40:10.712Z,11.04
2022-10-04T02:43:02.467Z,11.05
2022-10-04T02:45:59.137Z,11.01
2022-10-04T02:48:44.844Z,11.01
2022-10-04T02:51:18.256Z,11.00
2022-10-04T02:53:54.897Z,10.98
2022-10-04T02:56:25.169Z,10.98
2022-10-04T02:58:57.544Z,11.00
2022-10-04T03:01:27.092Z,10.91
2022-10-04T03:03:55.265Z,10.95
2022-10-04T03:06:29.503Z,10.96
2022-10-04T03:09:01.244Z,10.95
2022-10-04T03:11:40.977Z,10.95
2022-10-04T03:14:15.184Z,10.96
2022-10-04T03:16:44.825Z,10.88
2022-10-04T03:19:13.818Z,10.92
2022-10-04T03:21:43.175Z,10.91
2022-10-04T03:24:14.181Z,10.89
2022-10-04T03:26:46.372Z,10.91
2022-10-04T03:29:14.753Z,10.94
2022-10-04T03:31:47.371Z,10.91
2022-10-04T03:34:20.508Z,10.91
2022-10-04T03:36:49.686Z,10.91
2022-10-04T03:39:39.829Z,10.92
2022-10-04T03:42:16.002Z,10.91
2022-10-04T03:44:46.870Z,10.84
2022-10-04T03:47:35.873Z,10.83
2022-10-04T03:50:13.101Z,10.80
2022-10-04T03:52:42.965Z,10.77
2022-10-04T03:55:12.796Z,10.75
2022-10-04T03:57:41.809Z,10.75
2022-10-04T04:00:15.339Z,10.72
2022-10-04T04:03:06.664Z,10.80
2022-10-04T04:05:45.011Z,10.80
2022-10-04T04:08:34.902Z,10.79
2022-10-04T04:11:04.954Z,10.78
2022-10-04T04:13:31.853Z,10.77
2022-10-04T04:16:01.846Z,10.75
2022-10-04T04:18:31.488Z,10.75
2022-10-04T04:21:00.456Z,10.78
2022-10-04T04:23:35.074Z,10.77
2022-10-04T04:26:15.983Z,10.81
2022-10-04T04:28:45.132Z,10.80
2022-10-04T04:31:21.206Z,10.77
2022-10-04T04:33:48.609Z,10.73
2022-10-04T04:36:17.550Z,10.68
2022-10-04T04:39:03.291Z,10.49
2022-10-04T04:41:41.126Z,10.53
2022-10-04T04:44:17.644Z,10.53
2022-10-04T04:46:46.215Z,10.49
2022-10-04T04:49:17.086Z,10.42
2022-10-04T04:51:54.073Z,10.45
2022-10-04T04:54:24.329Z,10.46
2022-10-04T04:56:52.369Z,10.46
2022-10-04T04:59:20.740Z,10.49
2022-10-04T05:01:48.449Z,10.47
2022-10-04T05:04:37.289Z,10.56
2022-10-04T05:07:06.774Z,10.61
2022-10-04T05:09:41.628Z,10.64
2022-10-04T05:12:12.499Z,10.68
2022-10-04T05:14:41.407Z,10.76
2022-10-04T05:17:09.214Z,10.78
2022-10-04T05:19:37.713Z,10.76
2022-10-04T05:22:24.263Z,10.70
2022-10-04T05:25:00.279Z,10.71
2022-10-04T05:27:32.319Z,10.75
2022-10-04T05:30:05.090Z,10.77
2022-10-04T05:32:41.230Z,10.78
2022-10-04T05:35:16.245Z,10.72
2022-10-04T05:38:06.435Z,10.82
2022-10-04T05:40:50.514Z,10.79
2022-10-04T05:43:46.570Z,10.88
2022-10-04T05:46:19.630Z,10.87
2022-10-04T05:48:52.356Z,10.88
2022-10-04T05:51:23.296Z,10.86
2022-10-04T05:53:50.265Z,10.98
2022-10-04T05:56:27.280Z,10.94
2022-10-04T05:59:00.327Z,10.98
2022-10-04T06:01:45.887Z,10.87
2022-10-04T06:04:33.628Z,10.87
2022-10-04T06:07:23.332Z,10.98
2022-10-04T06:10:10.044Z,11.03
2022-10-04T06:12:56.575Z,11.02
2022-10-04T06:15:35.601Z,11.16
2022-10-04T06:18:15.382Z,11.28
2022-10-04T06:20:55.168Z,11.29
2022-10-04T06:23:23.981Z,11.38
2022-10-04T06:26:10.473Z,11.42
2022-10-04T06:28:39.785Z,11.50
2022-10-04T06:31:25.287Z,11.42
2022-10-04T06:34:07.161Z,11.44
2022-10-04T06:36:44.689Z,11.53
2022-10-04T06:39:19.699Z,11.63
2022-10-04T06:41:52.757Z,11.66
2022-10-04T06:44:29.018Z,11.49
2022-10-04T06:47:14.251Z,11.47
2022-10-04T06:50:03.237Z,11.51
2022-10-04T06:53:05.352Z,11.65
2022-10-04T06:55:41.471Z,11.73
2022-10-04T06:58:30.902Z,11.79
2022-10-04T07:01:02.748Z,11.72
2022-10-04T07:04:25.746Z,11.70
2022-10-04T07:07:32.768Z,11.76
2022-10-04T07:10:38.166Z,11.79
2022-10-04T07:13:10.996Z,11.87
2022-10-04T07:15:50.857Z,11.87
2022-10-04T07:18:24.222Z,11.97
2022-10-04T07:21:19.955Z,11.78
2022-10-04T07:23:57.230Z,11.88
2022-10-04T07:26:29.420Z,12.01
2022-10-04T07:29:19.792Z,12.03
2022-10-04T07:31:49.343Z,11.93
2022-10-04T07:34:27.172Z,11.78
2022-10-04T07:36:57.584Z,11.84
2022-10-04T07:39:31.603Z,11.94
2022-10-04T07:42:15.113Z,11.99
2022-10-04T07:45:03.793Z,12.03
2022-10-04T07:47:39.159Z,12.01
2022-10-04T07:50:26.878Z,12.16
2022-10-04T07:53:05.904Z,12.28
2022-10-04T07:55:45.618Z,12.40
2022-10-04T07:58:30.093Z,12.52
2022-10-04T08:01:08.131Z,12.43
2022-10-04T08:03:58.643Z,12.49
2022-10-04T08:06:41.921Z,12.44
2022-10-04T08:09:32.877Z,12.65
2022-10-04T08:12:12.440Z,12.92
2022-10-04T08:14:59.232Z,12.90
2022-10-04T08:17:59.973Z,12.97
2022-10-04T08:20:51.671Z,13.32
2022-10-04T08:23:27.348Z,13.60
2022-10-04T08:26:07.525Z,13.53
2022-10-04T08:29:11.733Z,13.25
2022-10-04T08:31:41.928Z,13.32
2022-10-04T08:34:18.300Z,13.35
2022-10-04T08:37:03.999Z,13.41
2022-10-04T08:39:36.752Z,13.72
2022-10-04T08:42:33.872Z,13.83
2022-10-04T08:45:24.516Z,13.75
2022-10-04T08:47:54.940Z,13.83
2022-10-04T08:50:33.728Z,13.99
2022-10-04T08:53:26.549Z,14.24
2022-10-04T08:56:25.418Z,14.40
2022-10-04T08:59:12.276Z,14.42
2022-10-04T09:02:09.094Z,14.73
2022-10-04T09:04:45.239Z,14.66
2022-10-04T09:07:50.191Z,14.64
2022-10-04T09:10:30.053Z,14.50
2022-10-04T09:13:05.637Z,14.53
2022-10-04T09:15:43.750Z,15.20
2022-10-04T09:18:14.777Z,15.06
2022-10-04T09:21:08.556Z,14.25
2022-10-04T09:23:41.637Z,14.34
2022-10-04T09:26:33.656Z,14.09
2022-10-04T09:29:19.235Z,14.04
2022-10-04T09:31:50.101Z,14.96
2022-10-04T09:34:37.594Z,15.88
2022-10-04T09:37:07.779Z,16.45
2022-10-04T09:39:53.342Z,16.92
2022-10-04T09:42:34.040Z,17.09
2022-10-04T09:45:06.607Z,16.57
2022-10-04T09:47:55.014Z,15.77
2022-10-04T09:50:28.644Z,15.49
2022-10-04T09:53:20.610Z,15.54
2022-10-04T09:56:10.993Z,15.59
2022-10-04T09:58:55.017Z,15.41
2022-10-04T10:01:35.873Z,15.20
2022-10-04T10:04:05.848Z,15.94
2022-10-04T10:06:45.609Z,16.14
2022-10-04T10:13:11.743Z,17.11
2022-10-04T10:16:24.609Z,17.59
2022-10-04T10:19:05.839Z,17.86
2022-10-04T10:22:04.567Z,18.71
2022-10-04T10:24:37.852Z,19.71
2022-10-04T10:27:20.076Z,19.97
2022-10-04T10:30:04.467Z,20.15
2022-10-04T10:32:51.962Z,20.85
2022-10-04T10:35:37.502Z,21.45
2022-10-04T10:38:23.268Z,21.43
2022-10-04T10:40:50.151Z,20.93
2022-10-04T10:43:33.791Z,20.76
2022-10-04T10:46:33.139Z,20.27
2022-10-04T10:49:06.120Z,19.55
2022-10-04T10:51:56.262Z,19.25
2022-10-04T10:54:38.457Z,19.26
2022-10-04T10:57:37.254Z,19.32
2022-10-04T11:00:06.794Z,18.91
2022-10-04T11:03:07.163Z,19.60
2022-10-04T11:05:51.110Z,19.20
2022-10-04T11:08:18.968Z,19.46
2022-10-04T11:11:00.171Z,19.79
2022-10-04T11:13:48.941Z,19.15
2022-10-04T11:16:29.970Z,18.67
2022-10-04T11:18:56.815Z,18.47
2022-10-04T11:21:36.007Z,18.10
2022-10-04T11:24:02.774Z,17.56
2022-10-04T11:26:46.910Z,17.31
2022-10-04T11:29:32.361Z,17.21
2022-10-04T11:32:02.401Z,18.08
2022-10-04T11:34:48.019Z,18.64
2022-10-04T11:37:17.383Z,19.26
2022-10-04T11:40:00.847Z,20.06
2022-10-04T11:42:40.611Z,20.37
2022-10-04T11:45:33.712Z,20.33
2022-10-04T11:48:19.258Z,20.93
2022-10-04T11:51:09.893Z,20.90
2022-10-04T11:53:43.862Z,20.97
2022-10-04T11:56:13.907Z,20.12
2022-10-04T11:58:45.734Z,20.07
2022-10-04T12:01:30.737Z,20.19
2022-10-04T12:04:10.543Z,20.38
2022-10-04T12:06:57.961Z,20.61
2022-10-04T12:09:41.123Z,20.21
2022-10-04T12:12:29.682Z,20.15
2022-10-04T12:15:15.049Z,19.86
2022-10-04T12:18:05.703Z,18.76
2022-10-04T12:20:32.599Z,17.52
2022-10-04T12:23:25.488Z,17.35
2022-10-04T12:25:55.483Z,16.71
2022-10-04T12:28:43.063Z,16.56
2022-10-04T12:31:18.943Z,16.60
2022-10-04T12:33:48.960Z,17.57
2022-10-04T12:36:18.459Z,17.53
2022-10-04T12:38:46.867Z,17.30
2022-10-04T12:41:16.748Z,16.81
2022-10-04T12:43:52.904Z,16.39
2022-10-04T12:46:40.411Z,16.33
2022-10-04T12:49:17.442Z,16.88
2022-10-04T12:52:05.828Z,18.17
2022-10-04T12:54:33.930Z,19.63
2022-10-04T12:57:15.930Z,20.16
2022-10-04T12:59:52.610Z,20.16
2022-10-04T13:02:31.665Z,20.37
2022-10-04T13:04:58.659Z,20.74
2022-10-04T13:07:26.468Z,21.78
2022-10-04T13:10:24.932Z,21.78
2022-10-04T13:13:12.001Z,20.78
2022-10-04T13:18:35.529Z,19.60
2022-10-04T13:21:16.125Z,19.35
2022-10-04T13:23:53.520Z,19.54
2022-10-04T13:26:24.582Z,19.57
2022-10-04T13:29:05.191Z,20.00
2022-10-04T13:31:49.217Z,20.88
2022-10-04T13:34:37.021Z,21.09
2022-10-04T13:37:07.446Z,20.72
2022-10-04T13:39:54.256Z,21.07
2022-10-04T13:42:33.429Z,21.48
2022-10-04T13:45:26.318Z,21.41
2022-10-04T13:48:27.703Z,20.58
2022-10-04T13:50:55.604Z,19.11
2022-10-04T13:53:55.939Z,18.73
2022-10-04T13:56:43.770Z,19.78
2022-10-04T13:59:34.987Z,20.36
2022-10-04T14:02:04.165Z,21.10
2022-10-04T14:04:42.468Z,21.58
2022-10-04T14:07:15.579Z,21.99
2022-10-04T14:10:13.328Z,22.02
2022-10-04T14:13:06.334Z,21.67
2022-10-04T14:15:51.491Z,21.17
2022-10-04T14:18:45.357Z,21.34
2022-10-04T14:21:21.499Z,21.07
2022-10-04T14:23:56.609Z,20.97
2022-10-04T14:26:32.985Z,20.56
2022-10-04T14:29:14.262Z,20.96
2022-10-04T14:31:53.199Z,21.44
2022-10-04T14:34:32.049Z,21.51
2022-10-04T14:37:04.752Z,21.17
2022-10-04T14:39:54.525Z,21.16
2022-10-04T14:42:46.017Z,20.99
2022-10-04T14:45:33.688Z,21.26
2022-10-04T14:48:07.934Z,21.14
2022-10-04T14:51:00.421Z,21.31
2022-10-04T14:53:30.227Z,21.17
2022-10-04T14:56:33.891Z,20.62
2022-10-04T14:59:33.673Z,20.31
2022-10-04T15:02:11.476Z,20.15
2022-10-04T15:04:58.759Z,20.04
2022-10-04T15:07:34.116Z,20.19
2022-10-04T15:10:12.941Z,20.64
2022-10-04T15:13:10.313Z,20.11
2022-10-04T15:15:52.850Z,20.13
2022-10-04T15:18:31.588Z,19.64
2022-10-04T15:21:02.712Z,19.73
2022-10-04T15:23:38.113Z,19.78
2022-10-04T15:26:12.493Z,19.52
2022-10-04T15:28:47.365Z,19.53
2022-10-04T15:31:33.602Z,19.51
2022-10-04T15:34:24.920Z,19.64
2022-10-04T15:36:57.665Z,19.55
2022-10-04T15:39:24.479Z,19.48
2022-10-04T15:41:56.454Z,19.35
2022-10-04T15:44:30.221Z,19.33
2022-10-04T15:46:58.162Z,19.11
2022-10-04T15:50:02.886Z,19.04
2022-10-04T15:52:38.737Z,18.63
2022-10-04T15:55:05.716Z,18.58
2022-10-04T15:57:54.490Z,18.53
2022-10-04T16:00:54.207Z,18.45
2022-10-04T16:03:28.174Z,18.12
2022-10-04T16:06:15.022Z,17.96
2022-10-04T16:08:48.903Z,17.54
2022-10-04T16:11:53.612Z,17.30
2022-10-04T16:14:30.388Z,16.90
2022-10-04T16:17:18.812Z,15.99
2022-10-04T16:20:08.498Z,15.32
2022-10-04T16:22:36.732Z,14.66
2022-10-04T16:25:39.034Z,14.37
2022-10-04T16:28:14.617Z,13.98
2022-10-04T16:30:52.778Z,13.78
2022-10-04T16:33:44.353Z,13.37
2022-10-04T16:36:27.857Z,13.27
2022-10-04T16:39:18.903Z,13.75
2022-10-04T16:41:47.689Z,14.09
2022-10-04T16:44:32.954Z,14.17
2022-10-04T16:47:19.832Z,14.06
2022-10-04T16:49:49.526Z,13.87
2022-10-04T16:52:46.269Z,13.37
2022-10-04T16:55:35.821Z,13.10
2022-10-04T16:58:21.560Z,12.85
2022-10-04T17:01:27.902Z,13.03
2022-10-04T17:04:04.032Z,12.89
2022-10-04T17:06:46.932Z,12.28
2022-10-04T17:09:38.582Z,11.86
2022-10-04T17:12:24.002Z,12.19
2022-10-04T17:14:50.767Z,11.91
2022-10-04T17:17:44.145Z,11.97
2022-10-04T17:20:31.808Z,12.30
2022-10-04T17:23:00.618Z,12.04
2022-10-04T17:25:43.385Z,12.08
2022-10-04T17:28:47.800Z,12.03
2022-10-04T17:31:26.251Z,11.57
2022-10-04T17:34:13.110Z,11.36
2022-10-04T17:36:50.658Z,11.33
2022-10-04T17:39:22.287Z,11.29
2022-10-04T17:41:59.502Z,11.60
2022-10-04T17:44:46.435Z,11.55
2022-10-04T17:47:23.033Z,11.05
2022-10-04T17:50:21.962Z,10.70
2022-10-04T17:53:15.791Z,10.24
2022-10-04T17:55:56.493Z,10.43
2022-10-04T17:58:27.023Z,10.14
2022-10-04T18:01:15.552Z,10.48
2022-10-04T18:03:48.074Z,10.69
2022-10-04T18:06:26.358Z,10.63
2022-10-04T18:09:02.588Z,10.41
2022-10-04T18:11:50.653Z,10.20
2022-10-04T18:14:36.989Z,9.87
2022-10-04T18:17:04.184Z,10.02
2022-10-04T18:19:51.713Z,9.65
2022-10-04T18:22:20.171Z,9.42
2022-10-04T18:24:51.029Z,9.37
2022-10-04T18:27:30.118Z,9.79
2022-10-04T18:30:16.773Z,9.81
2022-10-04T18:33:03.816Z,9.58
2022-10-04T18:35:33.076Z,9.50
2022-10-04T18:38:16.774Z,9.57
2022-10-04T18:40:53.190Z,9.66
2022-10-04T18:43:41.805Z,9.63
2022-10-04T18:46:21.722Z,9.42
2022-10-04T18:48:55.233Z,9.04
2022-10-04T18:51:25.541Z,8.62
2022-10-04T18:54:24.955Z,8.76
2022-10-04T18:57:00.679Z,8.58
2022-10-04T19:00:04.847Z,8.98
2022-10-04T19:02:52.470Z,8.77
2022-10-04T19:05:39.169Z,8.77
2022-10-04T19:08:31.394Z,8.76
2022-10-04T19:11:16.915Z,8.66
2022-10-04T19:13:44.169Z,8.51
2022-10-04T19:16:15.930Z,8.72
2022-10-04T19:22:13.972Z,8.60
2022-10-04T19:25:07.160Z,8.48
2022-10-04T19:27:41.968Z,8.60
2022-10-04T19:30:16.073Z,8.75
2022-10-04T19:33:01.663Z,8.62
2022-10-04T19:35:38.446Z,8.55
2022-10-04T19:38:28.047Z,8.36
2022-10-04T19:41:16.707Z,8.46
2022-10-04T19:47:21.408Z,8.04
2022-10-04T19:53:33.311Z,8.37
2022-10-04T19:56:21.112Z,8.48
2022-10-04T19:59:01.201Z,8.52
2022-10-04T20:01:30.292Z,8.37
2022-10-04T20:04:17.275Z,8.26
2022-10-04T20:06:52.267Z,8.30
2022-10-04T20:09:27.473Z,8.47
2022-10-04T20:15:43.810Z,8.27
2022-10-04T20:18:33.573Z,8.17
2022-10-04T20:21:02.131Z,8.09
2022-10-04T20:23:48.047Z,8.14
2022-10-04T20:26:53.837Z,8.06
2022-10-04T20:30:16.366Z,7.87
2022-10-04T20:32:45.247Z,7.90
2022-10-04T20:35:34.861Z,7.96
2022-10-04T20:38:32.677Z,8.03
2022-10-04T20:41:06.839Z,8.18
2022-10-04T20:43:52.527Z,8.14
2022-10-04T20:46:23.596Z,7.99
2022-10-04T20:48:51.524Z,7.86
2022-10-04T20:51:28.038Z,8.02
2022-10-04T20:53:54.988Z,7.87
2022-10-04T20:56:25.054Z,7.86
2022-10-04T20:59:05.085Z,8.06
2022-10-04T21:01:36.455Z,8.25
2022-10-04T21:04:18.140Z,8.26
2022-10-04T21:06:58.078Z,8.22
2022-10-04T21:09:27.972Z,8.16
2022-10-04T21:11:56.759Z,8.04
2022-10-04T21:14:25.910Z,8.21
2022-10-04T21:17:02.598Z,8.16
2022-10-04T21:19:33.018Z,8.03
2022-10-04T21:22:02.511Z,7.87
2022-10-04T21:24:49.087Z,7.79
2022-10-04T21:27:27.017Z,7.95
2022-10-04T21:30:01.337Z,7.97
2022-10-04T21:32:31.388Z,7.98
2022-10-04T21:35:09.074Z,7.88
2022-10-04T21:37:36.484Z,7.95
2022-10-04T21:40:08.833Z,8.16
2022-10-04T21:42:38.928Z,8.04
2022-10-04T21:45:07.959Z,8.04
2022-10-04T21:47:37.631Z,7.87
2022-10-04T21:50:04.711Z,7.77
2022-10-04T21:52:37.617Z,7.75
2022-10-04T21:55:10.762Z,7.76
2022-10-04T21:57:50.549Z,7.59
2022-10-04T22:00:18.411Z,7.52
2022-10-04T22:02:53.361Z,7.44
2022-10-04T22:05:23.456Z,7.40
2022-10-04T22:07:52.375Z,7.46
2022-10-04T22:10:19.346Z,7.47
2022-10-04T22:12:58.541Z,7.55
2022-10-04T22:15:29.045Z,7.57
2022-10-04T22:17:57.195Z,7.52
2022-10-04T22:20:25.222Z,7.58
2022-10-04T22:22:59.364Z,7.59
2022-10-04T22:25:33.350Z,7.60
2022-10-04T22:28:00.556Z,7.54
2022-10-04T22:30:29.985Z,7.55
2022-10-04T22:33:23.158Z,7.57
2022-10-04T22:35:50.141Z,7.61
2022-10-04T22:38:18.180Z,7.60
2022-10-04T22:40:47.079Z,7.73
2022-10-04T22:43:28.257Z,7.82
2022-10-04T22:45:57.143Z,7.66
2022-10-04T22:48:29.316Z,7.67
2022-10-04T22:51:11.206Z,7.58
2022-10-04T22:53:41.236Z,7.26
2022-10-04T22:56:20.072Z,7.19
2022-10-04T22:58:55.853Z,7.14
2022-10-04T23:01:26.822Z,6.97
2022-10-04T23:03:54.812Z,6.90
2022-10-04T23:06:21.674Z,6.89
2022-10-04T23:09:03.891Z,7.19
2022-10-04T23:11:33.686Z,7.03
2022-10-04T23:14:00.473Z,6.92
2022-10-04T23:16:27.417Z,7.24
2022-10-04T23:19:11.468Z,7.26
2022-10-04T23:21:39.936Z,7.28
2022-10-04T23:24:23.563Z,7.12
2022-10-04T23:26:56.306Z,7.21
2022-10-04T23:29:38.580Z,7.14
2022-10-04T23:32:17.407Z,7.10
2022-10-04T23:34:56.277Z,7.04
2022-10-04T23:37:25.683Z,6.99
2022-10-04T23:39:52.778Z,6.93
2022-10-04T23:42:25.452Z,6.60
2022-10-04T23:44:52.501Z,6.52
2022-10-04T23:47:20.578Z,6.55
2022-10-04T23:49:48.671Z,6.41
2022-10-04T23:52:18.689Z,6.30
2022-10-04T23:54:48.513Z,6.33
2022-10-04T23:57:20.354Z,6.47
2022-10-04T23:59:47.676Z,6.49
